createdAt,value
2022-10-22T00:01:06.819Z,15.40
2022-10-22T00:03:34.506Z,15.40
2022-10-22T00:06:02.391Z,15.40
2022-10-22T00:08:30.077Z,15.40
2022-10-22T00:10:57.918Z,15.40
2022-10-22T00:13:26.040Z,15.40
2022-10-22T00:15:53.648Z,15.40
2022-10-22T00:18:21.418Z,15.40
2022-10-22T00:20:49.226Z,15.30
2022-10-22T00:23:16.945Z,15.30
2022-10-22T00:25:44.544Z,15.30
2022-10-22T00:28:12.151Z,15.30
2022-10-22T00:30:39.731Z,15.30
2022-10-22T00:33:07.371Z,15.30
2022-10-22T00:35:35.062Z,15.30
2022-10-22T00:38:02.939Z,15.30
2022-10-22T00:40:31.653Z,15.30
2022-10-22T00:43:00.110Z,15.30
2022-10-22T00:45:29.044Z,15.30
2022-10-22T00:48:08.628Z,15.30
2022-10-22T00:50:48.068Z,15.30
2022-10-22T00:53:30.470Z,15.30
2022-10-22T00:55:58.446Z,15.20
2022-10-22T00:58:30.077Z,15.20
2022-10-22T01:00:58.212Z,15.20
2022-10-22T01:03:26.159Z,15.20
2022-10-22T01:05:59.143Z,15.20
2022-10-22T01:08:47.302Z,15.20
2022-10-22T01:11:52.736Z,15.20
2022-10-22T01:14:51.153Z,15.10
2022-10-22T01:17:48.892Z,15.10
2022-10-22T01:20:25.255Z,15.10
2022-10-22T01:23:10.330Z,15.10
2022-10-22T01:26:11.546Z,15.00
2022-10-22T01:29:06.651Z,15.00
2022-10-22T01:31:41.127Z,15.00
2022-10-22T01:34:10.845Z,15.00
2022-10-22T01:36:39.698Z,15.00
2022-10-22T01:39:08.648Z,14.90
2022-10-22T01:41:36.471Z,14.90
2022-10-22T01:44:04.252Z,14.90
2022-10-22T01:46:32.596Z,14.90
2022-10-22T01:49:11.148Z,14.90
2022-10-22T01:51:50.044Z,14.90
2022-10-22T01:54:40.109Z,14.80
2022-10-22T01:57:16.247Z,14.80
2022-10-22T02:00:07.155Z,14.80
2022-10-22T02:02:49.235Z,14.80
2022-10-22T02:05:31.225Z,14.80
2022-10-22T02:08:11.261Z,14.80
2022-10-22T02:10:43.167Z,14.70
2022-10-22T02:13:17.586Z,14.70
2022-10-22T02:15:46.978Z,14.70
2022-10-22T02:18:15.861Z,14.70
2022-10-22T02:20:43.558Z,14.70
2022-10-22T02:23:11.969Z,14.70
2022-10-22T02:25:44.665Z,14.60
2022-10-22T02:28:44.126Z,14.70
2022-10-22T02:31:22.618Z,14.70
2022-10-22T02:33:55.037Z,14.60
2022-10-22T02:36:23.862Z,14.60
2022-10-22T02:38:52.449Z,14.60
2022-10-22T02:41:20.430Z,14.60
2022-10-22T02:43:55.109Z,14.60
2022-10-22T02:46:24.024Z,14.60
2022-10-22T02:48:51.810Z,14.60
2022-10-22T02:51:19.436Z,14.60
2022-10-22T02:53:47.030Z,14.60
2022-10-22T02:56:14.696Z,14.60
2022-10-22T02:58:42.303Z,14.60
2022-10-22T03:01:12.377Z,14.60
2022-10-22T03:03:43.105Z,14.60
2022-10-22T03:06:10.713Z,14.60
2022-10-22T03:08:38.325Z,14.60
2022-10-22T03:11:06.121Z,14.60
2022-10-22T03:13:33.696Z,14.60
2022-10-22T03:16:01.431Z,14.50
2022-10-22T03:18:29.176Z,14.50
2022-10-22T03:21:08.542Z,14.60
2022-10-22T03:23:37.483Z,14.60
2022-10-22T03:26:07.140Z,14.50
2022-10-22T03:28:36.354Z,14.50
2022-10-22T03:31:03.944Z,14.60
2022-10-22T03:33:31.537Z,14.60
2022-10-22T03:36:00.665Z,14.60
2022-10-22T03:38:29.792Z,14.60
2022-10-22T03:40:57.787Z,14.60
2022-10-22T03:43:25.510Z,14.60
2022-10-22T03:45:53.268Z,14.60
2022-10-22T03:48:20.876Z,14.60
2022-10-22T03:50:48.516Z,14.60
2022-10-22T03:53:16.190Z,14.60
2022-10-22T03:55:43.836Z,14.60
2022-10-22T03:58:11.434Z,14.60
2022-10-22T04:00:39.057Z,14.60
2022-10-22T04:03:06.645Z,14.60
2022-10-22T04:05:34.677Z,14.50
2022-10-22T04:08:02.268Z,14.50
2022-10-22T04:10:29.902Z,14.60
2022-10-22T04:12:57.628Z,14.60
2022-10-22T04:15:28.108Z,14.60
2022-10-22T04:17:56.126Z,14.60
2022-10-22T04:20:23.699Z,14.60
2022-10-22T04:22:51.348Z,14.60
2022-10-22T04:25:18.978Z,14.60
2022-10-22T04:27:46.538Z,14.60
2022-10-22T04:30:14.326Z,14.50
2022-10-22T04:32:41.918Z,14.60
2022-10-22T04:35:09.531Z,14.60
2022-10-22T04:37:37.364Z,14.50
2022-10-22T04:40:05.797Z,14.60
2022-10-22T04:42:33.529Z,14.60
2022-10-22T04:45:01.107Z,14.50
2022-10-22T04:47:28.795Z,14.50
2022-10-22T04:49:56.530Z,14.50
2022-10-22T04:52:24.139Z,14.40
2022-10-22T04:54:51.704Z,14.40
2022-10-22T04:57:19.384Z,14.40
2022-10-22T04:59:46.967Z,14.40
2022-10-22T05:02:14.575Z,14.40
2022-10-22T05:04:44.497Z,14.40
2022-10-22T05:07:12.077Z,14.40
2022-10-22T05:09:39.606Z,14.40
2022-10-22T05:12:07.304Z,14.40
2022-10-22T05:14:34.877Z,14.40
2022-10-22T05:17:02.503Z,14.40
2022-10-22T05:19:32.143Z,14.40
2022-10-22T05:22:04.704Z,14.30
2022-10-22T05:24:35.390Z,14.30
2022-10-22T05:27:03.610Z,14.30
2022-10-22T05:29:31.238Z,14.30
2022-10-22T05:31:58.865Z,14.30
2022-10-22T05:34:26.491Z,14.30
2022-10-22T05:36:54.101Z,14.30
2022-10-22T05:39:21.928Z,14.30
2022-10-22T05:41:49.540Z,14.30
2022-10-22T05:44:17.111Z,14.20
2022-10-22T05:46:45.042Z,14.30
2022-10-22T05:49:15.312Z,14.30
2022-10-22T05:51:42.992Z,14.20
2022-10-22T05:54:19.731Z,14.20
2022-10-22T05:56:47.780Z,14.20
2022-10-22T05:59:15.504Z,14.20
2022-10-22T06:01:43.734Z,14.20
2022-10-22T06:04:13.121Z,14.20
2022-10-22T06:06:45.973Z,14.20
2022-10-22T06:09:15.133Z,14.20
2022-10-22T06:11:42.738Z,14.30
2022-10-22T06:14:11.113Z,14.30
2022-10-22T06:16:39.228Z,14.30
2022-10-22T06:19:08.176Z,14.30
2022-10-22T06:21:35.809Z,14.30
2022-10-22T06:24:03.866Z,14.30
2022-10-22T06:26:32.180Z,14.30
2022-10-22T06:29:00.358Z,14.30
2022-10-22T06:31:29.277Z,14.30
2022-10-22T06:33:57.305Z,14.40
2022-10-22T06:36:25.099Z,14.40
2022-10-22T06:38:54.656Z,14.40
2022-10-22T06:41:27.056Z,14.40
2022-10-22T06:43:58.168Z,14.40
2022-10-22T06:46:27.053Z,14.40
2022-10-22T06:48:59.150Z,14.50
2022-10-22T06:51:28.425Z,14.50
2022-10-22T06:53:57.939Z,14.50
2022-10-22T06:56:27.961Z,14.50
2022-10-22T06:58:58.159Z,14.50
2022-10-22T07:01:30.397Z,14.50
2022-10-22T07:03:59.292Z,14.50
2022-10-22T07:06:28.886Z,14.60
2022-10-22T07:08:58.963Z,14.60
2022-10-22T07:11:35.333Z,14.60
2022-10-22T07:14:02.920Z,14.60
2022-10-22T07:16:32.473Z,14.60
2022-10-22T07:19:05.116Z,14.60
2022-10-22T07:21:32.811Z,14.70
2022-10-22T07:24:00.600Z,14.70
2022-10-22T07:26:31.019Z,14.70
2022-10-22T07:29:00.771Z,14.80
2022-10-22T07:31:28.772Z,14.80
2022-10-22T07:33:57.488Z,14.90
2022-10-22T07:36:25.348Z,15.00
2022-10-22T07:38:58.549Z,15.00
2022-10-22T07:41:28.812Z,15.00
2022-10-22T07:43:57.853Z,15.10
2022-10-22T07:46:26.712Z,15.10
2022-10-22T07:48:54.502Z,15.20
2022-10-22T07:51:22.353Z,15.20
2022-10-22T07:53:50.022Z,15.20
2022-10-22T07:56:17.744Z,15.20
2022-10-22T07:58:45.491Z,15.30
2022-10-22T08:01:13.090Z,15.20
2022-10-22T08:03:40.691Z,15.30
2022-10-22T08:06:09.705Z,15.30
2022-10-22T08:08:37.381Z,15.30
2022-10-22T08:11:05.595Z,15.40
2022-10-22T08:13:33.359Z,15.50
2022-10-22T08:16:01.712Z,15.50
2022-10-22T08:18:30.110Z,15.60
2022-10-22T08:20:58.373Z,15.60
2022-10-22T08:23:28.580Z,15.70
2022-10-22T08:25:57.682Z,15.70
2022-10-22T08:28:26.059Z,15.80
2022-10-22T08:30:53.746Z,15.80
2022-10-22T08:33:21.858Z,15.90
2022-10-22T08:35:51.833Z,15.90
2022-10-22T08:38:20.021Z,15.90
2022-10-22T08:40:52.731Z,15.80
2022-10-22T08:43:47.591Z,15.80
2022-10-22T08:46:52.630Z,15.90
2022-10-22T08:49:28.451Z,16.00
2022-10-22T08:52:00.206Z,16.10
2022-10-22T08:54:52.700Z,16.20
2022-10-22T08:57:54.339Z,16.20
2022-10-22T09:00:46.310Z,16.30
2022-10-22T09:04:00.512Z,16.30
2022-10-22T09:06:31.846Z,16.40
2022-10-22T09:09:01.407Z,16.40
2022-10-22T09:11:35.622Z,16.40
2022-10-22T09:14:04.420Z,16.40
2022-10-22T09:17:03.168Z,16.40
2022-10-22T09:20:28.845Z,16.40
2022-10-22T09:23:29.483Z,16.40
2022-10-22T09:25:58.026Z,16.40
2022-10-22T09:28:25.937Z,16.40
2022-10-22T09:30:53.786Z,16.40
2022-10-22T09:33:31.590Z,16.30
2022-10-22T09:36:06.953Z,16.40
2022-10-22T09:38:41.632Z,16.50
2022-10-22T09:41:09.557Z,16.70
2022-10-22T09:43:37.179Z,16.80
2022-10-22T09:46:08.797Z,16.80
2022-10-22T09:48:42.031Z,16.90
2022-10-22T09:51:23.532Z,16.90
2022-10-22T09:54:01.570Z,16.90
2022-10-22T09:56:41.800Z,16.90
2022-10-22T09:59:17.334Z,16.90
2022-10-22T10:01:45.071Z,16.90
2022-10-22T10:04:16.048Z,16.90
2022-10-22T10:06:44.919Z,16.90
2022-10-22T10:09:21.442Z,17.00
2022-10-22T10:12:18.574Z,17.00
2022-10-22T10:15:21.310Z,17.00
2022-10-22T10:18:01.024Z,17.00
2022-10-22T10:20:50.621Z,17.10
2022-10-22T10:23:31.203Z,17.10
2022-10-22T10:26:34.077Z,17.10
2022-10-22T10:29:39.706Z,17.20
2022-10-22T10:32:31.577Z,17.30
2022-10-22T10:35:25.920Z,17.40
2022-10-22T10:38:27.372Z,17.60
2022-10-22T10:41:14.024Z,17.70
2022-10-22T10:44:34.303Z,17.80
2022-10-22T10:47:33.159Z,17.80
2022-10-22T10:50:27.005Z,17.90
2022-10-22T10:53:52.624Z,17.90
2022-10-22T10:56:45.756Z,18.00
2022-10-22T10:59:51.005Z,18.10
2022-10-22T11:02:21.423Z,18.10
2022-10-22T11:05:13.152Z,18.00
2022-10-22T11:07:54.946Z,17.90
2022-10-22T11:10:45.164Z,18.00
2022-10-22T11:13:38.658Z,18.00
2022-10-22T11:16:32.968Z,18.10
2022-10-22T11:19:46.201Z,18.30
2022-10-22T11:22:26.733Z,18.40
2022-10-22T11:25:27.005Z,18.30
2022-10-22T11:28:09.180Z,18.30
2022-10-22T11:30:41.866Z,18.20
2022-10-22T11:33:19.147Z,18.30
2022-10-22T11:35:48.493Z,18.40
2022-10-22T11:38:22.705Z,18.50
2022-10-22T11:41:02.685Z,18.70
2022-10-22T11:43:55.363Z,18.90
2022-10-22T11:46:22.918Z,19.00
2022-10-22T11:49:18.562Z,19.10
2022-10-22T11:51:47.383Z,19.10
2022-10-22T11:54:37.316Z,19.10
2022-10-22T11:57:40.745Z,19.10
2022-10-22T12:00:35.690Z,19.10
2022-10-22T12:03:19.888Z,19.10
2022-10-22T12:06:03.538Z,19.10
2022-10-22T12:08:33.038Z,19.00
2022-10-22T12:11:37.608Z,19.00
2022-10-22T12:14:32.590Z,18.90
2022-10-22T12:17:16.378Z,18.90
2022-10-22T12:20:04.902Z,18.80
2022-10-22T12:22:37.549Z,18.80
2022-10-22T12:25:39.285Z,18.80
2022-10-22T12:28:12.778Z,18.80
2022-10-22T12:30:41.393Z,18.90
2022-10-22T12:33:22.199Z,18.80
2022-10-22T12:35:53.204Z,18.80
2022-10-22T12:38:24.103Z,18.70
2022-10-22T12:40:57.535Z,18.70
2022-10-22T12:43:30.313Z,18.70
2022-10-22T12:45:59.929Z,18.70
2022-10-22T12:48:31.032Z,18.70
2022-10-22T12:51:02.202Z,18.80
2022-10-22T12:53:35.268Z,18.80
2022-10-22T12:56:06.865Z,18.80
2022-10-22T12:58:43.407Z,18.90
2022-10-22T13:01:13.809Z,18.90
2022-10-22T13:03:50.391Z,19.00
2022-10-22T13:06:21.631Z,19.10
2022-10-22T13:09:26.935Z,19.00
2022-10-22T13:12:04.827Z,19.00
2022-10-22T13:14:38.108Z,19.00
2022-10-22T13:17:29.182Z,19.10
2022-10-22T13:19:56.808Z,19.20
2022-10-22T13:22:42.462Z,19.40
2022-10-22T13:25:16.106Z,19.50
2022-10-22T13:27:45.743Z,19.70
2022-10-22T13:30:31.813Z,19.80
2022-10-22T13:33:28.398Z,20.00
2022-10-22T13:35:57.081Z,20.10
2022-10-22T13:38:27.075Z,20.10
2022-10-22T13:40:56.258Z,20.10
2022-10-22T13:43:25.235Z,20.20
2022-10-22T13:45:56.021Z,20.30
2022-10-22T13:48:25.080Z,20.40
2022-10-22T13:50:54.083Z,20.60
2022-10-22T13:53:26.338Z,20.70
2022-10-22T13:55:54.097Z,20.70
2022-10-22T13:58:24.898Z,20.80
2022-10-22T14:01:00.204Z,20.80
2022-10-22T14:03:32.637Z,20.80
2022-10-22T14:06:00.796Z,20.80
2022-10-22T14:08:29.363Z,20.90
2022-10-22T14:10:57.086Z,20.90
2022-10-22T14:13:24.725Z,20.90
2022-10-22T14:15:52.903Z,20.70
2022-10-22T14:18:26.682Z,20.50
2022-10-22T14:21:00.304Z,20.30
2022-10-22T14:23:30.814Z,20.10
2022-10-22T14:25:59.794Z,19.90
2022-10-22T14:28:28.104Z,19.60
2022-10-22T14:30:56.203Z,19.50
2022-10-22T14:33:31.988Z,19.50
2022-10-22T14:36:01.125Z,19.40
2022-10-22T14:38:29.482Z,19.20
2022-10-22T14:40:58.062Z,19.20
2022-10-22T14:43:29.105Z,19.10
2022-10-22T14:45:57.507Z,19.10
2022-10-22T14:48:25.199Z,19.00
2022-10-22T14:50:54.662Z,19.00
2022-10-22T14:53:22.232Z,19.00
2022-10-22T14:55:51.534Z,18.90
2022-10-22T14:58:19.169Z,18.90
2022-10-22T15:00:46.836Z,18.80
2022-10-22T15:03:14.541Z,18.80
2022-10-22T15:05:44.852Z,18.80
2022-10-22T15:08:14.633Z,18.70
2022-10-22T15:10:42.608Z,18.70
2022-10-22T15:13:10.264Z,18.70
2022-10-22T15:15:41.204Z,18.60
2022-10-22T15:18:08.911Z,18.60
2022-10-22T15:20:36.606Z,18.60
2022-10-22T15:23:04.584Z,18.60
2022-10-22T15:25:32.323Z,18.60
2022-10-22T15:28:02.085Z,18.60
2022-10-22T15:30:36.729Z,18.60
2022-10-22T15:33:04.553Z,18.60
2022-10-22T15:35:32.140Z,18.60
2022-10-22T15:37:59.752Z,18.60
2022-10-22T15:40:27.401Z,18.50
2022-10-22T15:42:55.011Z,18.50
2022-10-22T15:45:24.140Z,18.50
2022-10-22T15:47:51.759Z,18.50
2022-10-22T15:50:19.507Z,18.40
2022-10-22T15:52:47.238Z,18.40
2022-10-22T15:55:15.502Z,18.30
2022-10-22T15:57:43.735Z,18.30
2022-10-22T16:00:12.616Z,18.20
2022-10-22T16:02:40.188Z,18.10
2022-10-22T16:05:08.513Z,18.10
2022-10-22T16:07:36.131Z,18.10
2022-10-22T16:10:05.000Z,18.00
2022-10-22T16:12:32.707Z,18.00
2022-10-22T16:15:00.282Z,18.00
2022-10-22T16:17:27.948Z,17.90
2022-10-22T16:19:55.581Z,17.90
2022-10-22T16:22:23.228Z,17.80
2022-10-22T16:24:50.840Z,17.70
2022-10-22T16:27:18.447Z,17.60
2022-10-22T16:29:46.035Z,17.60
2022-10-22T16:32:13.736Z,17.50
2022-10-22T16:34:42.081Z,17.40
2022-10-22T16:37:12.594Z,17.30
2022-10-22T16:39:40.207Z,17.30
2022-10-22T16:42:08.031Z,17.10
2022-10-22T16:44:35.579Z,17.10
2022-10-22T16:47:03.442Z,17.00
2022-10-22T16:49:31.148Z,16.90
2022-10-22T16:51:58.734Z,16.80
2022-10-22T16:54:26.361Z,16.70
2022-10-22T16:56:53.977Z,16.70
2022-10-22T16:59:21.629Z,16.60
2022-10-22T17:01:49.291Z,16.50
2022-10-22T17:04:20.019Z,16.50
2022-10-22T17:06:47.826Z,16.50
2022-10-22T17:09:15.946Z,16.50
2022-10-22T17:11:44.935Z,16.40
2022-10-22T17:14:12.990Z,16.40
2022-10-22T17:16:40.731Z,16.30
2022-10-22T17:19:12.685Z,16.20
2022-10-22T17:21:40.651Z,16.20
2022-10-22T17:24:08.530Z,16.10
2022-10-22T17:26:37.388Z,16.00
2022-10-22T17:29:05.207Z,16.00
2022-10-22T17:31:37.411Z,16.00
2022-10-22T17:34:08.486Z,15.90
2022-10-22T17:36:37.335Z,15.90
2022-10-22T17:39:08.353Z,15.90
2022-10-22T17:41:37.922Z,15.80
2022-10-22T17:44:09.223Z,15.80
2022-10-22T17:46:37.663Z,15.70
2022-10-22T17:49:13.506Z,15.70
2022-10-22T17:51:41.314Z,15.70
2022-10-22T17:54:10.134Z,15.60
2022-10-22T17:56:40.158Z,15.60
2022-10-22T17:59:10.177Z,15.60
2022-10-22T18:01:43.328Z,15.60
2022-10-22T18:04:14.830Z,15.50
2022-10-22T18:06:42.517Z,15.50
2022-10-22T18:09:17.216Z,15.40
2022-10-22T18:11:47.017Z,15.40
2022-10-22T18:14:15.046Z,15.40
2022-10-22T18:16:42.660Z,15.40
2022-10-22T18:19:10.700Z,15.40
2022-10-22T18:21:38.407Z,15.30
2022-10-22T18:24:06.568Z,15.30
2022-10-22T18:26:34.623Z,15.30
2022-10-22T18:29:02.436Z,15.30
2022-10-22T18:31:30.434Z,15.30
2022-10-22T18:33:58.061Z,15.30
2022-10-22T18:36:27.615Z,15.30
2022-10-22T18:38:59.094Z,15.30
2022-10-22T18:41:28.469Z,15.20
2022-10-22T18:43:59.897Z,15.20
2022-10-22T18:46:29.267Z,15.20
2022-10-22T18:48:58.757Z,15.20
2022-10-22T18:51:30.883Z,15.10
2022-10-22T18:54:05.229Z,15.00
2022-10-22T18:56:40.778Z,15.00
2022-10-22T18:59:18.693Z,14.90
2022-10-22T19:01:46.620Z,14.90
2022-10-22T19:04:14.764Z,14.80
2022-10-22T19:06:45.375Z,14.70
2022-10-22T19:09:17.569Z,14.70
2022-10-22T19:11:45.972Z,14.70
2022-10-22T19:14:14.807Z,14.60
2022-10-22T19:16:42.574Z,14.60
2022-10-22T19:19:16.510Z,14.50
2022-10-22T19:21:44.566Z,14.50
2022-10-22T19:24:15.720Z,14.50
2022-10-22T19:26:44.153Z,14.60
2022-10-22T19:29:11.739Z,14.60
2022-10-22T19:31:40.987Z,14.60
2022-10-22T19:34:10.112Z,14.60
2022-10-22T19:36:37.871Z,14.60
2022-10-22T19:39:06.277Z,14.60
2022-10-22T19:41:34.024Z,14.50
2022-10-22T19:44:02.414Z,14.50
2022-10-22T19:46:32.582Z,14.50
2022-10-22T19:49:02.225Z,14.50
2022-10-22T19:51:31.832Z,14.50
2022-10-22T19:54:06.058Z,14.50
2022-10-22T19:56:36.156Z,14.40
2022-10-22T19:59:05.835Z,14.40
2022-10-22T20:01:33.503Z,14.30
2022-10-22T20:04:01.650Z,14.40
2022-10-22T20:06:30.512Z,14.40
2022-10-22T20:08:58.769Z,14.50
2022-10-22T20:11:52.331Z,14.50
2022-10-22T20:14:20.619Z,14.50
2022-10-22T20:16:48.208Z,14.50
2022-10-22T20:19:16.331Z,14.50
2022-10-22T20:21:45.638Z,14.50
2022-10-22T20:24:13.335Z,14.50
2022-10-22T20:26:41.226Z,14.50
2022-10-22T20:29:11.361Z,14.50
2022-10-22T20:31:38.978Z,14.60
2022-10-22T20:34:06.869Z,14.60
2022-10-22T20:36:34.525Z,14.60
2022-10-22T20:39:07.584Z,14.60
2022-10-22T20:41:37.803Z,14.60
2022-10-22T20:44:05.575Z,14.50
2022-10-22T20:46:33.655Z,14.60
2022-10-22T20:49:21.575Z,14.60
2022-10-22T20:51:49.308Z,14.60
2022-10-22T20:54:17.614Z,14.60
2022-10-22T20:56:46.207Z,14.50
2022-10-22T20:59:14.047Z,14.50
2022-10-22T21:01:51.461Z,14.50
2022-10-22T21:04:21.527Z,14.50
2022-10-22T21:06:50.294Z,14.50
2022-10-22T21:09:17.971Z,14.50
2022-10-22T21:11:46.164Z,14.50
2022-10-22T21:14:16.390Z,14.50
2022-10-22T21:16:49.231Z,14.50
2022-10-22T21:19:18.914Z,14.50
2022-10-22T21:21:46.614Z,14.50
2022-10-22T21:24:14.307Z,14.50
2022-10-22T21:26:43.256Z,14.50
2022-10-22T21:29:12.784Z,14.60
2022-10-22T21:31:40.637Z,14.50
2022-10-22T21:34:08.375Z,14.50
2022-10-22T21:36:36.032Z,14.50
2022-10-22T21:39:04.038Z,14.50
2022-10-22T21:41:31.708Z,14.40
2022-10-22T21:44:00.053Z,14.40
2022-10-22T21:46:28.908Z,14.40
2022-10-22T21:49:02.570Z,14.30
2022-10-22T21:51:33.689Z,14.30
2022-10-22T21:54:01.954Z,14.20
2022-10-22T21:56:33.209Z,14.10
2022-10-22T21:59:02.791Z,14.10
2022-10-22T22:01:30.878Z,14.00
2022-10-22T22:03:59.188Z,14.10
2022-10-22T22:06:30.693Z,14.10
2022-10-22T22:09:01.859Z,14.10
2022-10-22T22:11:30.872Z,14.10
2022-10-22T22:14:00.105Z,14.10
2022-10-22T22:16:31.948Z,14.10
2022-10-22T22:21:39.877Z,14.20
2022-10-22T22:24:09.355Z,14.30
2022-10-22T22:26:37.078Z,14.30
2022-10-22T22:29:04.754Z,14.40
2022-10-22T22:31:34.677Z,14.40
2022-10-22T22:34:10.691Z,14.50
2022-10-22T22:36:42.083Z,14.50
2022-10-22T22:39:14.839Z,14.50
2022-10-22T22:41:43.713Z,14.60
2022-10-22T22:44:12.731Z,14.60
2022-10-22T22:46:40.734Z,14.60
2022-10-22T22:49:08.598Z,14.60
2022-10-22T22:51:36.286Z,14.70
2022-10-22T22:54:04.013Z,14.70
2022-10-22T22:56:34.585Z,14.80
2022-10-22T22:59:03.942Z,14.80
2022-10-22T23:01:39.565Z,14.80
2022-10-22T23:04:11.882Z,14.80
2022-10-22T23:06:39.955Z,14.80
2022-10-22T23:09:12.108Z,14.80
2022-10-22T23:11:41.391Z,14.80
2022-10-22T23:14:14.767Z,14.80
2022-10-22T23:16:50.162Z,14.80
2022-10-22T23:19:21.208Z,14.80
2022-10-22T23:21:55.332Z,14.80
2022-10-22T23:24:28.760Z,14.80
2022-10-22T23:27:00.652Z,14.80
2022-10-22T23:29:31.646Z,14.80
2022-10-22T23:32:03.131Z,14.80
2022-10-22T23:34:32.548Z,14.80
2022-10-22T23:37:00.395Z,14.80
2022-10-22T23:39:29.577Z,14.80
2022-10-22T23:41:57.873Z,14.70
2022-10-22T23:44:25.847Z,14.70
2022-10-22T23:46:53.669Z,14.70
2022-10-22T23:49:21.437Z,14.70
2022-10-22T23:51:49.302Z,14.60
2022-10-22T23:54:20.324Z,14.60
2022-10-22T23:56:48.084Z,14.60
2022-10-22T23:59:16.197Z,14.60
